Terminal Aerodrome Forecast
Issued by NWS

Home | Current Version | Previous Version | Text Only | Print | Product List | Glossary On
Versions: 1 2 3 4 5 6 7 8 9 10 11 12 13 14 15 16 17 18 19 20 21 22 23 24 25 26 27 28 29 30 31 32 33 34 35 36 37
000
FTUS46 KLOX 251720
TAFSBP
TAF
KSBP 251720Z 2518/2618 32006KT P6SM SCT009
     FM252000 32014KT P6SM SKC
     FM260500 VRB05KT 5SM BR BKN006
     FM261000 VRB03KT 2SM BR OVC003=

USA.gov is the U.S. government's official web portal to all federal, state and local government web resources and services.